sensor_id;sensor_type;location;lat;lon;timestamp;P1;durP1;ratioP1;P2;durP2;ratioP2
68888;SDS011;55930;47.412;8.790;2023-12-20T00:01:13;10.50;;;7.93;;
68888;SDS011;55930;47.412;8.790;2023-12-20T00:04:33;10.00;;;7.80;;
68888;SDS011;55930;47.412;8.790;2023-12-20T00:07:53;10.10;;;7.83;;
68888;SDS011;55930;47.412;8.790;2023-12-20T00:11:14;9.93;;;7.40;;
68888;SDS011;55930;47.412;8.790;2023-12-20T00:14:34;10.60;;;7.80;;
68888;SDS011;55930;47.412;8.790;2023-12-20T00:17:54;12.00;;;8.40;;
68888;SDS011;55930;47.412;8.790;2023-12-20T00:21:17;11.73;;;8.30;;
68888;SDS011;55930;47.412;8.790;2023-12-20T00:24:38;12.70;;;7.63;;
68888;SDS011;55930;47.412;8.790;2023-12-20T00:27:58;11.33;;;7.73;;
68888;SDS011;55930;47.412;8.790;2023-12-20T00:31:18;10.87;;;7.90;;
68888;SDS011;55930;47.412;8.790;2023-12-20T00:34:39;11.77;;;8.17;;
68888;SDS011;55930;47.412;8.790;2023-12-20T00:37:59;11.90;;;7.30;;
68888;SDS011;55930;47.412;8.790;2023-12-20T00:41:19;12.23;;;9.00;;
68888;SDS011;55930;47.412;8.790;2023-12-20T00:44:42;13.37;;;8.30;;
68888;SDS011;55930;47.412;8.790;2023-12-20T00:48:03;11.18;;;8.07;;
68888;SDS011;55930;47.412;8.790;2023-12-20T00:51:23;11.00;;;7.97;;
68888;SDS011;55930;47.412;8.790;2023-12-20T00:54:44;11.07;;;7.63;;
68888;SDS011;55930;47.412;8.790;2023-12-20T00:58:05;12.73;;;8.05;;
68888;SDS011;55930;47.412;8.790;2023-12-20T01:01:26;11.63;;;8.33;;
68888;SDS011;55930;47.412;8.790;2023-12-20T01:04:48;12.05;;;8.25;;
68888;SDS011;55930;47.412;8.790;2023-12-20T01:08:09;10.77;;;8.10;;
68888;SDS011;55930;47.412;8.790;2023-12-20T01:11:29;10.13;;;7.93;;
68888;SDS011;55930;47.412;8.790;2023-12-20T01:14:49;11.20;;;7.80;;
68888;SDS011;55930;47.412;8.790;2023-12-20T01:18:10;9.43;;;7.40;;
68888;SDS011;55930;47.412;8.790;2023-12-20T01:21:41;11.75;;;8.02;;
68888;SDS011;55930;47.412;8.790;2023-12-20T01:25:03;13.98;;;7.75;;
68888;SDS011;55930;47.412;8.790;2023-12-20T01:28:24;9.20;;;6.77;;
68888;SDS011;55930;47.412;8.790;2023-12-20T01:31:45;11.40;;;7.30;;
68888;SDS011;55930;47.412;8.790;2023-12-20T01:35:06;10.20;;;6.73;;
68888;SDS011;55930;47.412;8.790;2023-12-20T01:38:26;11.43;;;7.10;;
68888;SDS011;55930;47.412;8.790;2023-12-20T01:41:47;9.70;;;6.90;;
68888;SDS011;55930;47.412;8.790;2023-12-20T01:45:07;10.00;;;6.97;;
68888;SDS011;55930;47.412;8.790;2023-12-20T01:48:28;8.35;;;7.28;;
68888;SDS011;55930;47.412;8.790;2023-12-20T01:51:49;10.10;;;7.05;;
68888;SDS011;55930;47.412;8.790;2023-12-20T01:55:10;8.80;;;6.93;;
68888;SDS011;55930;47.412;8.790;2023-12-20T01:58:37;9.25;;;6.13;;
68888;SDS011;55930;47.412;8.790;2023-12-20T02:02:02;11.05;;;6.90;;
68888;SDS011;55930;47.412;8.790;2023-12-20T02:05:23;12.45;;;6.80;;
68888;SDS011;55930;47.412;8.790;2023-12-20T02:08:45;10.85;;;7.13;;
68888;SDS011;55930;47.412;8.790;2023-12-20T02:12:06;10.17;;;7.27;;
68888;SDS011;55930;47.412;8.790;2023-12-20T02:15:26;12.80;;;7.70;;
68888;SDS011;55930;47.412;8.790;2023-12-20T02:18:46;9.37;;;6.80;;
68888;SDS011;55930;47.412;8.790;2023-12-20T02:22:10;12.53;;;7.87;;
68888;SDS011;55930;47.412;8.790;2023-12-20T02:25:31;10.82;;;8.43;;
68888;SDS011;55930;47.412;8.790;2023-12-20T02:28:51;11.37;;;8.87;;
68888;SDS011;55930;47.412;8.790;2023-12-20T02:32:12;13.13;;;9.13;;
68888;SDS011;55930;47.412;8.790;2023-12-20T02:35:33;11.27;;;8.40;;
68888;SDS011;55930;47.412;8.790;2023-12-20T02:38:53;12.57;;;8.77;;
68888;SDS011;55930;47.412;8.790;2023-12-20T02:42:13;13.30;;;8.97;;
68888;SDS011;55930;47.412;8.790;2023-12-20T02:45:36;9.90;;;8.20;;
68888;SDS011;55930;47.412;8.790;2023-12-20T02:48:57;11.88;;;8.57;;
68888;SDS011;55930;47.412;8.790;2023-12-20T02:52:23;12.27;;;8.55;;
68888;SDS011;55930;47.412;8.790;2023-12-20T02:55:47;10.57;;;7.57;;
68888;SDS011;55930;47.412;8.790;2023-12-20T02:59:09;11.43;;;8.43;;
68888;SDS011;55930;47.412;8.790;2023-12-20T03:02:30;11.07;;;7.70;;
68888;SDS011;55930;47.412;8.790;2023-12-20T03:05:53;9.20;;;7.37;;
68888;SDS011;55930;47.412;8.790;2023-12-20T03:09:13;9.35;;;7.25;;
68888;SDS011;55930;47.412;8.790;2023-12-20T03:12:33;9.40;;;7.07;;
68888;SDS011;55930;47.412;8.790;2023-12-20T03:15:54;11.13;;;8.60;;
68888;SDS011;55930;47.412;8.790;2023-12-20T03:19:15;9.40;;;7.93;;
68888;SDS011;55930;47.412;8.790;2023-12-20T03:22:38;10.50;;;7.32;;
68888;SDS011;55930;47.412;8.790;2023-12-20T03:25:58;9.43;;;7.80;;
68888;SDS011;55930;47.412;8.790;2023-12-20T03:29:19;10.40;;;7.70;;
68888;SDS011;55930;47.412;8.790;2023-12-20T03:32:40;14.73;;;8.63;;
68888;SDS011;55930;47.412;8.790;2023-12-20T03:36:00;9.97;;;7.73;;
68888;SDS011;55930;47.412;8.790;2023-12-20T03:39:23;8.82;;;7.03;;
68888;SDS011;55930;47.412;8.790;2023-12-20T03:42:43;10.03;;;7.20;;
68888;SDS011;55930;47.412;8.790;2023-12-20T03:46:03;10.43;;;8.13;;
68888;SDS011;55930;47.412;8.790;2023-12-20T03:49:24;12.60;;;8.00;;
68888;SDS011;55930;47.412;8.790;2023-12-20T03:52:44;12.73;;;8.43;;
68888;SDS011;55930;47.412;8.790;2023-12-20T03:56:05;9.93;;;8.33;;
68888;SDS011;55930;47.412;8.790;2023-12-20T03:59:25;9.87;;;8.03;;
68888;SDS011;55930;47.412;8.790;2023-12-20T04:02:46;10.23;;;8.47;;
68888;SDS011;55930;47.412;8.790;2023-12-20T04:06:06;11.23;;;8.63;;
68888;SDS011;55930;47.412;8.790;2023-12-20T04:09:26;9.80;;;7.83;;
68888;SDS011;55930;47.412;8.790;2023-12-20T04:12:47;9.03;;;6.97;;
68888;SDS011;55930;47.412;8.790;2023-12-20T04:16:07;13.47;;;7.67;;
68888;SDS011;55930;47.412;8.790;2023-12-20T04:19:27;8.30;;;7.20;;
68888;SDS011;55930;47.412;8.790;2023-12-20T04:22:48;9.63;;;7.00;;
68888;SDS011;55930;47.412;8.790;2023-12-20T04:26:11;8.70;;;6.75;;
68888;SDS011;55930;47.412;8.790;2023-12-20T04:29:31;11.50;;;7.73;;
68888;SDS011;55930;47.412;8.790;2023-12-20T04:32:51;11.03;;;8.27;;
68888;SDS011;55930;47.412;8.790;2023-12-20T04:36:12;10.20;;;8.40;;
68888;SDS011;55930;47.412;8.790;2023-12-20T04:39:32;10.50;;;7.73;;
68888;SDS011;55930;47.412;8.790;2023-12-20T04:42:53;11.03;;;8.17;;
68888;SDS011;55930;47.412;8.790;2023-12-20T04:46:13;10.03;;;8.23;;
68888;SDS011;55930;47.412;8.790;2023-12-20T04:49:34;10.90;;;8.93;;
68888;SDS011;55930;47.412;8.790;2023-12-20T04:52:54;10.57;;;8.03;;
68888;SDS011;55930;47.412;8.790;2023-12-20T04:56:15;11.00;;;8.30;;
68888;SDS011;55930;47.412;8.790;2023-12-20T04:59:35;11.67;;;9.03;;
68888;SDS011;55930;47.412;8.790;2023-12-20T05:02:56;10.80;;;8.43;;
68888;SDS011;55930;47.412;8.790;2023-12-20T05:06:17;14.77;;;9.27;;
68888;SDS011;55930;47.412;8.790;2023-12-20T05:12:58;11.83;;;8.40;;
68888;SDS011;55930;47.412;8.790;2023-12-20T05:16:19;9.63;;;8.52;;
68888;SDS011;55930;47.412;8.790;2023-12-20T05:19:40;11.23;;;7.80;;
68888;SDS011;55930;47.412;8.790;2023-12-20T05:23:00;10.73;;;8.50;;
68888;SDS011;55930;47.412;8.790;2023-12-20T05:26:21;12.50;;;9.33;;
68888;SDS011;55930;47.412;8.790;2023-12-20T05:29:41;12.13;;;9.10;;
68888;SDS011;55930;47.412;8.790;2023-12-20T05:33:02;11.17;;;8.30;;
68888;SDS011;55930;47.412;8.790;2023-12-20T05:36:22;9.47;;;7.53;;
68888;SDS011;55930;47.412;8.790;2023-12-20T05:39:43;9.40;;;7.90;;
68888;SDS011;55930;47.412;8.790;2023-12-20T05:43:03;8.73;;;7.37;;
68888;SDS011;55930;47.412;8.790;2023-12-20T05:46:24;8.68;;;6.82;;
68888;SDS011;55930;47.412;8.790;2023-12-20T05:49:45;11.40;;;7.00;;
68888;SDS011;55930;47.412;8.790;2023-12-20T05:53:05;8.10;;;6.07;;
68888;SDS011;55930;47.412;8.790;2023-12-20T05:56:26;8.03;;;6.80;;
68888;SDS011;55930;47.412;8.790;2023-12-20T05:59:46;7.07;;;5.90;;
68888;SDS011;55930;47.412;8.790;2023-12-20T06:03:08;6.28;;;5.63;;
68888;SDS011;55930;47.412;8.790;2023-12-20T06:06:28;6.60;;;5.57;;
68888;SDS011;55930;47.412;8.790;2023-12-20T06:09:49;5.90;;;4.77;;
68888;SDS011;55930;47.412;8.790;2023-12-20T06:13:09;8.03;;;5.57;;
68888;SDS011;55930;47.412;8.790;2023-12-20T06:16:29;5.00;;;4.40;;
68888;SDS011;55930;47.412;8.790;2023-12-20T06:19:50;8.50;;;4.93;;
68888;SDS011;55930;47.412;8.790;2023-12-20T06:23:10;7.10;;;5.73;;
68888;SDS011;55930;47.412;8.790;2023-12-20T06:26:31;7.67;;;6.20;;
68888;SDS011;55930;47.412;8.790;2023-12-20T06:29:51;8.80;;;7.33;;
68888;SDS011;55930;47.412;8.790;2023-12-20T06:33:11;9.60;;;7.23;;
68888;SDS011;55930;47.412;8.790;2023-12-20T06:36:32;8.73;;;7.38;;
68888;SDS011;55930;47.412;8.790;2023-12-20T06:39:53;11.53;;;9.00;;
68888;SDS011;55930;47.412;8.790;2023-12-20T06:43:13;11.97;;;9.17;;
68888;SDS011;55930;47.412;8.790;2023-12-20T06:46:33;11.27;;;8.83;;
68888;SDS011;55930;47.412;8.790;2023-12-20T06:49:54;11.90;;;10.27;;
68888;SDS011;55930;47.412;8.790;2023-12-20T06:53:14;10.33;;;8.23;;
68888;SDS011;55930;47.412;8.790;2023-12-20T06:56:35;10.37;;;8.40;;
68888;SDS011;55930;47.412;8.790;2023-12-20T06:59:55;11.50;;;9.03;;
68888;SDS011;55930;47.412;8.790;2023-12-20T07:03:16;11.93;;;9.07;;
68888;SDS011;55930;47.412;8.790;2023-12-20T07:06:36;11.30;;;8.80;;
68888;SDS011;55930;47.412;8.790;2023-12-20T07:09:56;11.10;;;8.37;;
68888;SDS011;55930;47.412;8.790;2023-12-20T07:13:17;11.33;;;8.40;;
68888;SDS011;55930;47.412;8.790;2023-12-20T07:16:37;10.83;;;8.17;;
68888;SDS011;55930;47.412;8.790;2023-12-20T07:19:58;10.30;;;8.47;;
68888;SDS011;55930;47.412;8.790;2023-12-20T07:23:19;8.90;;;7.83;;
68888;SDS011;55930;47.412;8.790;2023-12-20T07:26:40;11.77;;;9.10;;
68888;SDS011;55930;47.412;8.790;2023-12-20T07:30:00;9.43;;;8.20;;
68888;SDS011;55930;47.412;8.790;2023-12-20T07:33:23;9.40;;;8.40;;
68888;SDS011;55930;47.412;8.790;2023-12-20T07:36:43;9.47;;;8.40;;
68888;SDS011;55930;47.412;8.790;2023-12-20T07:40:04;9.60;;;7.90;;
68888;SDS011;55930;47.412;8.790;2023-12-20T07:43:25;10.77;;;8.25;;
68888;SDS011;55930;47.412;8.790;2023-12-20T07:46:45;11.13;;;8.13;;
68888;SDS011;55930;47.412;8.790;2023-12-20T07:50:06;10.27;;;7.93;;
68888;SDS011;55930;47.412;8.790;2023-12-20T07:53:26;10.98;;;8.00;;
68888;SDS011;55930;47.412;8.790;2023-12-20T07:56:49;10.90;;;8.20;;
68888;SDS011;55930;47.412;8.790;2023-12-20T08:00:10;8.00;;;7.20;;
68888;SDS011;55930;47.412;8.790;2023-12-20T08:03:30;11.03;;;7.73;;
68888;SDS011;55930;47.412;8.790;2023-12-20T08:06:51;10.53;;;6.93;;
68888;SDS011;55930;47.412;8.790;2023-12-20T08:10:11;8.07;;;7.10;;
68888;SDS011;55930;47.412;8.790;2023-12-20T08:13:32;8.43;;;6.60;;
68888;SDS011;55930;47.412;8.790;2023-12-20T08:16:53;7.23;;;6.23;;
68888;SDS011;55930;47.412;8.790;2023-12-20T08:20:13;7.97;;;6.73;;
68888;SDS011;55930;47.412;8.790;2023-12-20T08:23:36;7.88;;;6.63;;
68888;SDS011;55930;47.412;8.790;2023-12-20T08:26:57;9.00;;;6.73;;
68888;SDS011;55930;47.412;8.790;2023-12-20T08:30:17;10.50;;;7.03;;
68888;SDS011;55930;47.412;8.790;2023-12-20T08:33:40;9.85;;;7.53;;
68888;SDS011;55930;47.412;8.790;2023-12-20T08:37:03;8.95;;;6.78;;
68888;SDS011;55930;47.412;8.790;2023-12-20T08:40:26;8.55;;;7.65;;
68888;SDS011;55930;47.412;8.790;2023-12-20T08:43:47;10.47;;;7.17;;
68888;SDS011;55930;47.412;8.790;2023-12-20T08:47:07;10.40;;;6.70;;
68888;SDS011;55930;47.412;8.790;2023-12-20T08:50:28;7.30;;;6.07;;
68888;SDS011;55930;47.412;8.790;2023-12-20T08:53:49;9.70;;;6.72;;
68888;SDS011;55930;47.412;8.790;2023-12-20T08:57:09;8.63;;;5.93;;
68888;SDS011;55930;47.412;8.790;2023-12-20T09:00:30;7.43;;;5.87;;
68888;SDS011;55930;47.412;8.790;2023-12-20T09:03:50;7.40;;;6.00;;
68888;SDS011;55930;47.412;8.790;2023-12-20T09:07:25;7.88;;;5.95;;
68888;SDS011;55930;47.412;8.790;2023-12-20T09:10:46;6.95;;;5.50;;
68888;SDS011;55930;47.412;8.790;2023-12-20T09:14:06;7.80;;;5.93;;
68888;SDS011;55930;47.412;8.790;2023-12-20T09:17:27;6.83;;;5.37;;
68888;SDS011;55930;47.412;8.790;2023-12-20T09:20:47;7.10;;;5.43;;
68888;SDS011;55930;47.412;8.790;2023-12-20T09:24:07;10.03;;;5.97;;
68888;SDS011;55930;47.412;8.790;2023-12-20T09:27:28;7.50;;;5.38;;
68888;SDS011;55930;47.412;8.790;2023-12-20T09:30:49;8.27;;;5.57;;
68888;SDS011;55930;47.412;8.790;2023-12-20T09:34:10;11.30;;;6.20;;
68888;SDS011;55930;47.412;8.790;2023-12-20T09:37:31;9.20;;;6.73;;
68888;SDS011;55930;47.412;8.790;2023-12-20T09:40:51;6.67;;;5.60;;
68888;SDS011;55930;47.412;8.790;2023-12-20T09:44:13;7.53;;;5.87;;
68888;SDS011;55930;47.412;8.790;2023-12-20T09:47:35;9.85;;;6.30;;
68888;SDS011;55930;47.412;8.790;2023-12-20T09:50:56;8.13;;;5.90;;
68888;SDS011;55930;47.412;8.790;2023-12-20T09:54:16;7.97;;;6.30;;
68888;SDS011;55930;47.412;8.790;2023-12-20T09:57:38;8.45;;;6.30;;
68888;SDS011;55930;47.412;8.790;2023-12-20T10:04:20;9.13;;;6.18;;
68888;SDS011;55930;47.412;8.790;2023-12-20T10:07:41;7.73;;;5.90;;
68888;SDS011;55930;47.412;8.790;2023-12-20T10:11:01;8.23;;;5.97;;
68888;SDS011;55930;47.412;8.790;2023-12-20T10:14:24;6.63;;;5.45;;
68888;SDS011;55930;47.412;8.790;2023-12-20T10:17:44;6.33;;;5.17;;
68888;SDS011;55930;47.412;8.790;2023-12-20T10:21:07;6.10;;;5.07;;
68888;SDS011;55930;47.412;8.790;2023-12-20T10:24:31;6.25;;;4.85;;
68888;SDS011;55930;47.412;8.790;2023-12-20T10:31:34;6.72;;;5.30;;
68888;SDS011;55930;47.412;8.790;2023-12-20T10:34:58;10.35;;;5.13;;
68888;SDS011;55930;47.412;8.790;2023-12-20T10:38:19;7.50;;;5.77;;
68888;SDS011;55930;47.412;8.790;2023-12-20T10:41:40;5.33;;;4.30;;
68888;SDS011;55930;47.412;8.790;2023-12-20T10:45:01;6.65;;;4.82;;
68888;SDS011;55930;47.412;8.790;2023-12-20T10:48:22;7.30;;;5.13;;
68888;SDS011;55930;47.412;8.790;2023-12-20T10:51:49;7.03;;;5.10;;
68888;SDS011;55930;47.412;8.790;2023-12-20T10:55:14;6.10;;;4.75;;
68888;SDS011;55930;47.412;8.790;2023-12-20T10:58:34;5.28;;;4.03;;
68888;SDS011;55930;47.412;8.790;2023-12-20T11:02:05;5.82;;;4.50;;
68888;SDS011;55930;47.412;8.790;2023-12-20T11:05:28;5.13;;;4.18;;
68888;SDS011;55930;47.412;8.790;2023-12-20T11:09:17;6.28;;;3.92;;
68888;SDS011;55930;47.412;8.790;2023-12-20T11:12:49;6.20;;;4.57;;
68888;SDS011;55930;47.412;8.790;2023-12-20T11:16:17;7.15;;;4.38;;
68888;SDS011;55930;47.412;8.790;2023-12-20T11:20:23;6.35;;;4.35;;
68888;SDS011;55930;47.412;8.790;2023-12-20T11:23:25;6.13;;;4.78;;
68888;SDS011;55930;47.412;8.790;2023-12-20T11:26:49;6.07;;;4.93;;
68888;SDS011;55930;47.412;8.790;2023-12-20T11:30:10;5.85;;;4.70;;
68888;SDS011;55930;47.412;8.790;2023-12-20T11:33:35;6.85;;;4.88;;
68888;SDS011;55930;47.412;8.790;2023-12-20T11:36:58;6.38;;;4.65;;
68888;SDS011;55930;47.412;8.790;2023-12-20T11:40:19;6.57;;;5.00;;
68888;SDS011;55930;47.412;8.790;2023-12-20T11:43:42;5.50;;;4.35;;
68888;SDS011;55930;47.412;8.790;2023-12-20T11:47:02;6.43;;;5.10;;
68888;SDS011;55930;47.412;8.790;2023-12-20T11:50:26;6.40;;;4.80;;
68888;SDS011;55930;47.412;8.790;2023-12-20T11:53:51;5.70;;;4.82;;
68888;SDS011;55930;47.412;8.790;2023-12-20T11:57:13;5.70;;;4.53;;
68888;SDS011;55930;47.412;8.790;2023-12-20T12:00:33;5.97;;;4.47;;
68888;SDS011;55930;47.412;8.790;2023-12-20T12:04:03;4.97;;;4.27;;
68888;SDS011;55930;47.412;8.790;2023-12-20T12:07:24;4.50;;;4.10;;
68888;SDS011;55930;47.412;8.790;2023-12-20T12:10:47;5.70;;;3.70;;
68888;SDS011;55930;47.412;8.790;2023-12-20T12:14:08;4.45;;;3.40;;
68888;SDS011;55930;47.412;8.790;2023-12-20T12:17:31;4.57;;;3.58;;
68888;SDS011;55930;47.412;8.790;2023-12-20T12:20:59;4.13;;;3.50;;
68888;SDS011;55930;47.412;8.790;2023-12-20T12:24:22;4.40;;;3.37;;
68888;SDS011;55930;47.412;8.790;2023-12-20T12:27:43;4.07;;;3.10;;
68888;SDS011;55930;47.412;8.790;2023-12-20T12:31:03;3.70;;;3.07;;
68888;SDS011;55930;47.412;8.790;2023-12-20T12:34:26;3.97;;;2.80;;
68888;SDS011;55930;47.412;8.790;2023-12-20T12:37:47;3.38;;;2.70;;
68888;SDS011;55930;47.412;8.790;2023-12-20T12:41:10;3.47;;;2.63;;
68888;SDS011;55930;47.412;8.790;2023-12-20T12:44:33;3.88;;;2.65;;
68888;SDS011;55930;47.412;8.790;2023-12-20T12:47:53;3.50;;;2.27;;
68888;SDS011;55930;47.412;8.790;2023-12-20T12:51:15;2.90;;;2.30;;
68888;SDS011;55930;47.412;8.790;2023-12-20T12:54:35;2.87;;;2.33;;
68888;SDS011;55930;47.412;8.790;2023-12-20T12:57:56;3.40;;;2.60;;
68888;SDS011;55930;47.412;8.790;2023-12-20T13:01:16;3.43;;;1.87;;
68888;SDS011;55930;47.412;8.790;2023-12-20T13:04:37;2.63;;;2.13;;
68888;SDS011;55930;47.412;8.790;2023-12-20T13:07:58;3.20;;;2.27;;
68888;SDS011;55930;47.412;8.790;2023-12-20T13:11:18;4.03;;;2.50;;
68888;SDS011;55930;47.412;8.790;2023-12-20T13:14:39;4.30;;;1.97;;
68888;SDS011;55930;47.412;8.790;2023-12-20T13:21:24;2.55;;;2.08;;
68888;SDS011;55930;47.412;8.790;2023-12-20T13:24:45;2.67;;;1.80;;
68888;SDS011;55930;47.412;8.790;2023-12-20T13:28:05;2.47;;;1.87;;
68888;SDS011;55930;47.412;8.790;2023-12-20T13:31:26;2.23;;;1.97;;
68888;SDS011;55930;47.412;8.790;2023-12-20T13:34:47;4.18;;;2.00;;
68888;SDS011;55930;47.412;8.790;2023-12-20T13:38:07;2.57;;;1.40;;
68888;SDS011;55930;47.412;8.790;2023-12-20T13:41:28;1.80;;;1.30;;
68888;SDS011;55930;47.412;8.790;2023-12-20T13:44:48;2.40;;;1.63;;
68888;SDS011;55930;47.412;8.790;2023-12-20T13:48:11;2.88;;;1.42;;
68888;SDS011;55930;47.412;8.790;2023-12-20T13:51:31;2.13;;;1.43;;
68888;SDS011;55930;47.412;8.790;2023-12-20T13:54:52;3.90;;;1.50;;
68888;SDS011;55930;47.412;8.790;2023-12-20T13:58:12;2.63;;;1.70;;
68888;SDS011;55930;47.412;8.790;2023-12-20T14:01:32;1.93;;;1.53;;
68888;SDS011;55930;47.412;8.790;2023-12-20T14:04:53;2.10;;;1.23;;
68888;SDS011;55930;47.412;8.790;2023-12-20T14:08:16;1.70;;;1.10;;
68888;SDS011;55930;47.412;8.790;2023-12-20T14:11:40;3.53;;;1.38;;
68888;SDS011;55930;47.412;8.790;2023-12-20T14:15:04;2.35;;;1.20;;
68888;SDS011;55930;47.412;8.790;2023-12-20T14:18:29;3.10;;;1.50;;
68888;SDS011;55930;47.412;8.790;2023-12-20T14:21:50;2.95;;;1.60;;
68888;SDS011;55930;47.412;8.790;2023-12-20T14:25:11;1.57;;;1.10;;
68888;SDS011;55930;47.412;8.790;2023-12-20T14:28:32;3.15;;;1.63;;
68888;SDS011;55930;47.412;8.790;2023-12-20T14:31:52;3.20;;;1.93;;
68888;SDS011;55930;47.412;8.790;2023-12-20T14:35:13;5.27;;;1.90;;
68888;SDS011;55930;47.412;8.790;2023-12-20T14:38:33;5.07;;;1.87;;
68888;SDS011;55930;47.412;8.790;2023-12-20T14:41:54;2.57;;;1.53;;
68888;SDS011;55930;47.412;8.790;2023-12-20T14:45:15;3.47;;;2.13;;
68888;SDS011;55930;47.412;8.790;2023-12-20T14:51:56;3.97;;;2.10;;
68888;SDS011;55930;47.412;8.790;2023-12-20T14:55:19;4.30;;;1.73;;
68888;SDS011;55930;47.412;8.790;2023-12-20T14:58:40;3.43;;;2.10;;
68888;SDS011;55930;47.412;8.790;2023-12-20T15:02:00;9.13;;;2.80;;
68888;SDS011;55930;47.412;8.790;2023-12-20T15:05:24;3.60;;;1.70;;
68888;SDS011;55930;47.412;8.790;2023-12-20T15:08:45;5.43;;;1.83;;
68888;SDS011;55930;47.412;8.790;2023-12-20T15:12:05;4.43;;;1.90;;
68888;SDS011;55930;47.412;8.790;2023-12-20T15:15:26;7.20;;;1.60;;
68888;SDS011;55930;47.412;8.790;2023-12-20T15:18:48;3.33;;;1.50;;
68888;SDS011;55930;47.412;8.790;2023-12-20T15:22:09;3.07;;;1.70;;
68888;SDS011;55930;47.412;8.790;2023-12-20T15:25:30;4.97;;;1.60;;
68888;SDS011;55930;47.412;8.790;2023-12-20T15:28:50;4.18;;;1.77;;
68888;SDS011;55930;47.412;8.790;2023-12-20T15:32:11;4.13;;;1.90;;
68888;SDS011;55930;47.412;8.790;2023-12-20T15:35:31;1.80;;;1.40;;
68888;SDS011;55930;47.412;8.790;2023-12-20T15:38:52;3.17;;;1.50;;
68888;SDS011;55930;47.412;8.790;2023-12-20T15:42:12;5.30;;;1.80;;
68888;SDS011;55930;47.412;8.790;2023-12-20T15:45:32;3.93;;;1.30;;
68888;SDS011;55930;47.412;8.790;2023-12-20T15:48:53;6.33;;;2.20;;
68888;SDS011;55930;47.412;8.790;2023-12-20T15:52:13;3.10;;;1.40;;
68888;SDS011;55930;47.412;8.790;2023-12-20T15:55:33;4.50;;;1.60;;
68888;SDS011;55930;47.412;8.790;2023-12-20T15:58:54;6.53;;;1.80;;
68888;SDS011;55930;47.412;8.790;2023-12-20T16:02:14;5.77;;;1.70;;
68888;SDS011;55930;47.412;8.790;2023-12-20T16:05:37;4.30;;;1.88;;
68888;SDS011;55930;47.412;8.790;2023-12-20T16:08:57;4.07;;;1.97;;
68888;SDS011;55930;47.412;8.790;2023-12-20T16:12:18;5.33;;;1.90;;
68888;SDS011;55930;47.412;8.790;2023-12-20T16:15:38;7.07;;;1.63;;
68888;SDS011;55930;47.412;8.790;2023-12-20T16:18:59;6.57;;;1.60;;
68888;SDS011;55930;47.412;8.790;2023-12-20T16:22:19;5.57;;;1.30;;
68888;SDS011;55930;47.412;8.790;2023-12-20T16:25:39;4.57;;;1.77;;
68888;SDS011;55930;47.412;8.790;2023-12-20T16:29:00;4.73;;;1.90;;
68888;SDS011;55930;47.412;8.790;2023-12-20T16:32:20;6.63;;;1.70;;
68888;SDS011;55930;47.412;8.790;2023-12-20T16:35:41;3.97;;;1.87;;
68888;SDS011;55930;47.412;8.790;2023-12-20T16:39:02;5.13;;;1.50;;
68888;SDS011;55930;47.412;8.790;2023-12-20T16:42:22;6.93;;;2.87;;
68888;SDS011;55930;47.412;8.790;2023-12-20T16:45:43;4.33;;;1.73;;
68888;SDS011;55930;47.412;8.790;2023-12-20T16:49:03;3.70;;;1.80;;
68888;SDS011;55930;47.412;8.790;2023-12-20T16:52:24;5.20;;;1.83;;
68888;SDS011;55930;47.412;8.790;2023-12-20T16:55:44;8.87;;;2.40;;
68888;SDS011;55930;47.412;8.790;2023-12-20T16:59:04;5.77;;;1.97;;
68888;SDS011;55930;47.412;8.790;2023-12-20T17:02:25;5.30;;;1.93;;
68888;SDS011;55930;47.412;8.790;2023-12-20T17:05:46;4.97;;;1.97;;
68888;SDS011;55930;47.412;8.790;2023-12-20T17:09:06;4.17;;;2.03;;
68888;SDS011;55930;47.412;8.790;2023-12-20T17:12:29;4.28;;;1.80;;
68888;SDS011;55930;47.412;8.790;2023-12-20T17:15:50;9.07;;;2.50;;
68888;SDS011;55930;47.412;8.790;2023-12-20T17:19:10;4.70;;;1.60;;
68888;SDS011;55930;47.412;8.790;2023-12-20T17:22:31;9.52;;;1.75;;
68888;SDS011;55930;47.412;8.790;2023-12-20T17:25:52;4.13;;;1.67;;
68888;SDS011;55930;47.412;8.790;2023-12-20T17:29:12;5.27;;;1.60;;
68888;SDS011;55930;47.412;8.790;2023-12-20T17:32:32;9.90;;;2.37;;
68888;SDS011;55930;47.412;8.790;2023-12-20T17:35:57;4.85;;;1.70;;
68888;SDS011;55930;47.412;8.790;2023-12-20T17:39:19;3.93;;;1.50;;
68888;SDS011;55930;47.412;8.790;2023-12-20T17:42:43;3.75;;;2.10;;
68888;SDS011;55930;47.412;8.790;2023-12-20T17:46:05;4.63;;;2.20;;
68888;SDS011;55930;47.412;8.790;2023-12-20T17:49:26;5.30;;;1.80;;
68888;SDS011;55930;47.412;8.790;2023-12-20T17:52:46;3.93;;;1.67;;
68888;SDS011;55930;47.412;8.790;2023-12-20T17:56:06;4.63;;;1.67;;
68888;SDS011;55930;47.412;8.790;2023-12-20T17:59:28;2.38;;;1.48;;
68888;SDS011;55930;47.412;8.790;2023-12-20T18:02:49;2.90;;;1.60;;
68888;SDS011;55930;47.412;8.790;2023-12-20T18:06:11;3.38;;;1.83;;
68888;SDS011;55930;47.412;8.790;2023-12-20T18:09:32;3.90;;;1.63;;
68888;SDS011;55930;47.412;8.790;2023-12-20T18:12:52;4.40;;;1.87;;
68888;SDS011;55930;47.412;8.790;2023-12-20T18:16:13;4.20;;;1.63;;
68888;SDS011;55930;47.412;8.790;2023-12-20T18:19:33;6.80;;;2.40;;
68888;SDS011;55930;47.412;8.790;2023-12-20T18:22:54;7.33;;;2.10;;
68888;SDS011;55930;47.412;8.790;2023-12-20T18:26:14;5.73;;;1.93;;
68888;SDS011;55930;47.412;8.790;2023-12-20T18:29:34;6.87;;;2.63;;
68888;SDS011;55930;47.412;8.790;2023-12-20T18:32:55;3.90;;;1.87;;
68888;SDS011;55930;47.412;8.790;2023-12-20T18:36:18;3.33;;;1.97;;
68888;SDS011;55930;47.412;8.790;2023-12-20T18:39:41;9.25;;;2.30;;
68888;SDS011;55930;47.412;8.790;2023-12-20T18:43:01;6.70;;;2.67;;
68888;SDS011;55930;47.412;8.790;2023-12-20T18:46:23;4.75;;;2.40;;
68888;SDS011;55930;47.412;8.790;2023-12-20T18:49:44;5.22;;;2.80;;
68888;SDS011;55930;47.412;8.790;2023-12-20T18:53:04;4.10;;;2.40;;
68888;SDS011;55930;47.412;8.790;2023-12-20T18:56:27;3.80;;;2.15;;
68888;SDS011;55930;47.412;8.790;2023-12-20T18:59:47;7.80;;;2.47;;
68888;SDS011;55930;47.412;8.790;2023-12-20T19:03:08;6.57;;;2.97;;
68888;SDS011;55930;47.412;8.790;2023-12-20T19:09:50;9.20;;;4.07;;
68888;SDS011;55930;47.412;8.790;2023-12-20T19:13:10;7.80;;;3.90;;
68888;SDS011;55930;47.412;8.790;2023-12-20T19:16:30;6.47;;;3.47;;
68888;SDS011;55930;47.412;8.790;2023-12-20T19:19:51;7.00;;;3.57;;
68888;SDS011;55930;47.412;8.790;2023-12-20T19:23:11;9.83;;;4.00;;
68888;SDS011;55930;47.412;8.790;2023-12-20T19:26:31;7.70;;;3.40;;
68888;SDS011;55930;47.412;8.790;2023-12-20T19:29:52;6.80;;;3.80;;
68888;SDS011;55930;47.412;8.790;2023-12-20T19:33:17;7.38;;;3.65;;
68888;SDS011;55930;47.412;8.790;2023-12-20T19:36:37;5.70;;;4.87;;
68888;SDS011;55930;47.412;8.790;2023-12-20T19:39:58;6.67;;;3.20;;
68888;SDS011;55930;47.412;8.790;2023-12-20T19:43:18;6.53;;;2.53;;
68888;SDS011;55930;47.412;8.790;2023-12-20T19:46:38;5.47;;;2.77;;
68888;SDS011;55930;47.412;8.790;2023-12-20T19:49:59;4.23;;;2.60;;
68888;SDS011;55930;47.412;8.790;2023-12-20T19:53:19;10.10;;;2.77;;
68888;SDS011;55930;47.412;8.790;2023-12-20T19:56:40;4.50;;;2.27;;
68888;SDS011;55930;47.412;8.790;2023-12-20T20:00:02;6.28;;;3.03;;
68888;SDS011;55930;47.412;8.790;2023-12-20T20:03:30;4.18;;;2.25;;
68888;SDS011;55930;47.412;8.790;2023-12-20T20:06:51;3.95;;;2.42;;
68888;SDS011;55930;47.412;8.790;2023-12-20T20:10:12;6.47;;;2.53;;
68888;SDS011;55930;47.412;8.790;2023-12-20T20:13:32;10.10;;;2.60;;
68888;SDS011;55930;47.412;8.790;2023-12-20T20:16:53;6.57;;;2.47;;
68888;SDS011;55930;47.412;8.790;2023-12-20T20:20:16;5.17;;;2.40;;
68888;SDS011;55930;47.412;8.790;2023-12-20T20:23:41;5.10;;;2.55;;
68888;SDS011;55930;47.412;8.790;2023-12-20T20:27:04;4.83;;;2.40;;